createdAt,value
2023-04-16T00:00:57.699Z,79.29
2023-04-16T00:03:29.752Z,79.70
2023-04-16T00:06:01.954Z,79.57
2023-04-16T00:08:35.664Z,79.96
2023-04-16T00:11:07.593Z,79.89
2023-04-16T00:13:39.371Z,79.71
2023-04-16T00:16:11.360Z,80.02
2023-04-16T00:18:43.222Z,79.96
2023-04-16T00:21:15.649Z,79.67
2023-04-16T00:23:47.386Z,80.23
2023-04-16T00:26:18.995Z,80.17
2023-04-16T00:28:51.460Z,80.35
2023-04-16T00:31:33.896Z,80.48
2023-04-16T00:34:08.315Z,80.56
2023-04-16T00:36:40.006Z,80.77
2023-04-16T00:39:11.743Z,80.91
2023-04-16T00:41:44.254Z,80.85
2023-04-16T00:44:15.990Z,81.22
2023-04-16T00:46:47.897Z,81.07
2023-04-16T00:49:20.032Z,81.43
2023-04-16T00:51:51.850Z,81.75
2023-04-16T00:54:26.252Z,81.61
2023-04-16T00:56:59.776Z,81.93
2023-04-16T00:59:32.501Z,81.88
2023-04-16T01:02:04.266Z,81.75
2023-04-16T01:04:36.647Z,81.81
2023-04-16T01:07:08.447Z,81.82
2023-04-16T01:09:40.148Z,81.88
2023-04-16T01:12:11.861Z,81.86
2023-04-16T01:14:44.048Z,82.17
2023-04-16T01:17:15.849Z,82.48
2023-04-16T01:19:47.543Z,82.43
2023-04-16T01:22:19.347Z,82.37
2023-04-16T01:24:51.027Z,82.38
2023-04-16T01:27:22.652Z,82.64
2023-04-16T01:29:56.327Z,82.24
2023-04-16T01:32:40.993Z,82.69
2023-04-16T01:35:13.603Z,82.74
2023-04-16T01:37:45.309Z,82.93
2023-04-16T01:40:18.780Z,83.22
2023-04-16T01:42:51.600Z,82.95
2023-04-16T01:45:25.872Z,83.22
2023-04-16T01:47:57.599Z,83.15
2023-04-16T01:50:30.242Z,83.15
2023-04-16T01:53:04.919Z,83.21
2023-04-16T01:55:36.910Z,83.80
2023-04-16T01:58:10.968Z,83.93
2023-04-16T02:00:43.207Z,83.92
2023-04-16T02:03:17.635Z,83.87
2023-04-16T02:05:49.647Z,84.51
2023-04-16T02:08:21.291Z,84.51
2023-04-16T02:10:53.490Z,84.49
2023-04-16T02:13:26.172Z,84.70
2023-04-16T02:15:58.304Z,84.81
2023-04-16T02:18:47.919Z,84.53
2023-04-16T02:21:20.957Z,84.96
2023-04-16T02:23:53.037Z,84.89
2023-04-16T02:26:31.321Z,84.82
2023-04-16T02:29:09.530Z,84.96
2023-04-16T02:31:47.089Z,84.91
2023-04-16T02:34:19.169Z,85.07
2023-04-16T02:36:50.865Z,85.36
2023-04-16T02:39:22.612Z,85.21
2023-04-16T02:41:54.369Z,85.46
2023-04-16T02:44:26.203Z,85.30
2023-04-16T02:46:57.968Z,85.52
2023-04-16T02:49:29.711Z,85.25
2023-04-16T02:52:01.439Z,85.47
2023-04-16T02:54:33.928Z,85.30
2023-04-16T02:57:06.130Z,85.40
2023-04-16T02:59:38.623Z,85.47
2023-04-16T03:02:10.341Z,85.63
2023-04-16T03:04:42.599Z,85.52
2023-04-16T03:07:14.515Z,85.63
2023-04-16T03:09:46.245Z,85.33
2023-04-16T03:12:18.049Z,85.46
2023-04-16T03:14:52.524Z,85.25
2023-04-16T03:17:24.271Z,85.38
2023-04-16T03:19:55.967Z,85.36
2023-04-16T03:22:27.701Z,85.39
2023-04-16T03:24:59.334Z,85.33
2023-04-16T03:27:31.156Z,85.65
2023-04-16T03:30:04.734Z,85.57
2023-04-16T03:32:40.717Z,85.55
2023-04-16T03:35:12.824Z,85.80
2023-04-16T03:37:44.593Z,85.82
2023-04-16T03:40:16.302Z,86.03
2023-04-16T03:42:48.190Z,86.12
2023-04-16T03:45:19.841Z,85.81
2023-04-16T03:47:54.171Z,85.93
2023-04-16T03:50:28.718Z,85.95
2023-04-16T03:53:00.476Z,86.18
2023-04-16T03:55:32.222Z,85.89
2023-04-16T03:58:04.948Z,86.12
2023-04-16T04:00:37.679Z,86.12
2023-04-16T04:03:18.708Z,86.15
2023-04-16T04:05:52.774Z,86.27
2023-04-16T04:08:34.695Z,86.54
2023-04-16T04:11:08.265Z,86.27
2023-04-16T04:13:40.814Z,86.44
2023-04-16T04:16:12.957Z,86.76
2023-04-16T04:18:44.782Z,86.44
2023-04-16T04:21:16.820Z,86.90
2023-04-16T04:23:48.518Z,86.87
2023-04-16T04:26:20.159Z,87.13
2023-04-16T04:28:51.955Z,86.93
2023-04-16T04:31:24.000Z,86.73
2023-04-16T04:33:55.738Z,86.85
2023-04-16T04:36:27.514Z,86.62
2023-04-16T04:38:59.892Z,86.43
2023-04-16T04:41:33.187Z,86.82
2023-04-16T04:44:06.554Z,86.74
2023-04-16T04:46:39.977Z,86.73
2023-04-16T04:49:11.969Z,86.84
2023-04-16T04:51:43.837Z,87.25
2023-04-16T04:54:15.721Z,86.89
2023-04-16T04:56:48.306Z,87.36
2023-04-16T04:59:21.689Z,87.10
2023-04-16T05:01:53.972Z,87.16
2023-04-16T05:04:25.946Z,87.18
2023-04-16T05:06:57.631Z,87.04
2023-04-16T05:09:29.325Z,87.21
2023-04-16T05:12:01.235Z,87.09
2023-04-16T05:14:34.193Z,87.11
2023-04-16T05:17:08.076Z,87.45
2023-04-16T05:19:39.953Z,87.17
2023-04-16T05:22:12.694Z,87.15
2023-04-16T05:24:45.372Z,87.39
2023-04-16T05:27:17.019Z,87.20
2023-04-16T05:29:48.713Z,87.34
2023-04-16T05:32:20.475Z,87.47
2023-04-16T05:34:52.205Z,87.50
2023-04-16T05:37:23.951Z,87.49
2023-04-16T05:39:55.735Z,87.79
2023-04-16T05:42:27.389Z,87.41
2023-04-16T05:44:59.178Z,87.54
2023-04-16T05:47:30.982Z,87.67
2023-04-16T05:50:03.592Z,87.76
2023-04-16T05:52:36.123Z,87.32
2023-04-16T05:55:08.238Z,87.44
2023-04-16T05:57:39.923Z,87.25
2023-04-16T06:00:12.040Z,87.09
2023-04-16T06:02:44.056Z,87.25
2023-04-16T06:05:15.879Z,87.32
2023-04-16T06:07:47.694Z,87.22
2023-04-16T06:10:19.362Z,86.87
2023-04-16T06:12:51.231Z,86.82
2023-04-16T06:15:22.959Z,86.48
2023-04-16T06:17:56.070Z,86.72
2023-04-16T06:20:28.159Z,86.54
2023-04-16T06:22:59.860Z,86.48
2023-04-16T06:25:32.325Z,86.36
2023-04-16T06:28:05.038Z,86.27
2023-04-16T06:30:36.813Z,85.84
2023-04-16T06:33:08.796Z,85.63
2023-04-16T06:35:40.919Z,85.69
2023-04-16T06:38:12.664Z,85.16
2023-04-16T06:40:44.618Z,85.19
2023-04-16T06:43:17.851Z,85.00
2023-04-16T06:45:50.283Z,84.90
2023-04-16T06:48:21.921Z,85.03
2023-04-16T06:50:54.960Z,84.98
2023-04-16T06:53:26.627Z,84.93
2023-04-16T06:55:58.399Z,84.93
2023-04-16T06:58:30.273Z,84.66
2023-04-16T07:01:02.724Z,84.56
2023-04-16T07:03:35.481Z,84.59
2023-04-16T07:06:07.614Z,84.64
2023-04-16T07:08:39.239Z,84.71
2023-04-16T07:11:11.001Z,84.70
2023-04-16T07:13:42.674Z,84.58
2023-04-16T07:16:14.501Z,84.75
2023-04-16T07:18:46.238Z,84.33
2023-04-16T07:21:18.134Z,84.46
2023-04-16T07:23:49.817Z,84.16
2023-04-16T07:26:21.578Z,84.25
2023-04-16T07:28:53.247Z,84.30
2023-04-16T07:31:24.955Z,84.18
2023-04-16T07:33:56.625Z,83.84
2023-04-16T07:36:29.725Z,83.66
2023-04-16T07:39:02.399Z,83.29
2023-04-16T07:41:34.375Z,83.08
2023-04-16T07:44:06.153Z,82.88
2023-04-16T07:46:46.295Z,83.14
2023-04-16T07:49:18.886Z,82.62
2023-04-16T07:51:50.730Z,82.31
2023-04-16T07:54:22.386Z,82.46
2023-04-16T07:56:54.026Z,82.19
2023-04-16T07:59:26.213Z,81.96
2023-04-16T08:01:58.394Z,81.96
2023-04-16T08:04:30.574Z,81.40
2023-04-16T08:07:02.499Z,81.67
2023-04-16T08:09:35.862Z,81.42
2023-04-16T08:12:07.594Z,81.16
2023-04-16T08:14:41.250Z,81.04
2023-04-16T08:17:14.420Z,80.73
2023-04-16T08:19:46.261Z,80.64
2023-04-16T08:22:19.172Z,80.29
2023-04-16T08:24:50.870Z,80.24
2023-04-16T08:27:22.593Z,80.03
2023-04-16T08:29:54.260Z,80.06
2023-04-16T08:32:27.235Z,79.12
2023-04-16T08:34:59.623Z,78.97
2023-04-16T08:37:31.326Z,78.68
2023-04-16T08:40:03.970Z,78.65
2023-04-16T08:42:56.214Z,78.26
2023-04-16T08:45:28.173Z,78.21
2023-04-16T08:48:01.964Z,78.32
2023-04-16T08:50:35.018Z,78.11
2023-04-16T08:53:14.046Z,77.87
2023-04-16T08:55:51.381Z,77.88
2023-04-16T08:58:29.656Z,77.93
2023-04-16T09:01:05.415Z,77.27
2023-04-16T09:03:37.821Z,77.69
2023-04-16T09:06:09.976Z,77.04
2023-04-16T09:08:44.714Z,77.55
2023-04-16T09:11:19.974Z,77.37
2023-04-16T09:13:52.370Z,77.23
2023-04-16T09:16:25.215Z,77.14
2023-04-16T09:18:57.013Z,76.33
2023-04-16T09:21:29.034Z,75.31
2023-04-16T09:24:02.263Z,75.04
2023-04-16T09:26:34.517Z,74.44
2023-04-16T09:29:06.691Z,74.84
2023-04-16T09:31:38.425Z,74.22
2023-04-16T09:34:10.314Z,74.09
2023-04-16T09:36:42.069Z,74.12
2023-04-16T09:39:22.535Z,73.30
2023-04-16T09:41:55.120Z,73.82
2023-04-16T09:44:41.097Z,72.78
2023-04-16T09:47:12.885Z,72.99
2023-04-16T09:49:45.621Z,72.88
2023-04-16T09:52:21.103Z,73.26
2023-04-16T09:54:54.018Z,73.29
2023-04-16T09:57:26.176Z,72.92
2023-04-16T10:00:07.822Z,72.96
2023-04-16T10:02:42.905Z,72.47
2023-04-16T10:05:18.606Z,72.27
2023-04-16T10:07:51.045Z,72.19
2023-04-16T10:10:23.614Z,71.60
2023-04-16T10:12:55.798Z,70.92
2023-04-16T10:15:28.083Z,70.76
2023-04-16T10:18:00.408Z,69.82
2023-04-16T10:20:32.353Z,69.92
2023-04-16T10:23:04.354Z,69.93
2023-04-16T10:25:37.970Z,69.75
2023-04-16T10:28:10.365Z,69.46
2023-04-16T10:30:52.694Z,68.97
2023-04-16T10:33:30.202Z,67.07
2023-04-16T10:36:12.374Z,67.57
2023-04-16T10:38:50.973Z,67.01
2023-04-16T10:41:22.820Z,66.89
2023-04-16T10:44:06.611Z,66.53
2023-04-16T10:46:40.597Z,66.28
2023-04-16T10:49:24.520Z,66.13
2023-04-16T10:52:02.238Z,66.01
2023-04-16T10:54:36.723Z,65.92
2023-04-16T10:57:15.005Z,65.78
2023-04-16T10:59:49.205Z,65.35
2023-04-16T11:02:21.211Z,65.31
2023-04-16T11:04:57.685Z,64.85
2023-04-16T11:07:35.113Z,64.72
2023-04-16T11:10:12.744Z,64.24
2023-04-16T11:12:48.550Z,63.67
2023-04-16T11:15:20.287Z,63.86
2023-04-16T11:17:52.711Z,63.74
2023-04-16T11:20:27.080Z,63.79
2023-04-16T11:22:58.994Z,63.39
2023-04-16T11:25:31.857Z,63.42
2023-04-16T11:28:03.688Z,63.58
2023-04-16T11:30:38.380Z,63.70
2023-04-16T11:33:12.377Z,63.06
2023-04-16T11:35:45.856Z,62.96
2023-04-16T11:38:18.787Z,62.87
2023-04-16T11:40:51.537Z,63.60
2023-04-16T11:43:23.277Z,64.20
2023-04-16T11:46:01.628Z,64.72
2023-04-16T11:48:52.505Z,64.78
2023-04-16T11:51:24.292Z,64.42
2023-04-16T11:53:56.254Z,64.73
2023-04-16T11:56:30.986Z,63.75
2023-04-16T11:59:17.980Z,63.80
2023-04-16T12:01:57.610Z,63.22
2023-04-16T12:04:29.901Z,62.68
2023-04-16T12:07:09.781Z,63.21
2023-04-16T12:09:44.776Z,63.00
2023-04-16T12:12:32.129Z,62.88
2023-04-16T12:15:05.240Z,63.02
2023-04-16T12:17:38.609Z,62.40
2023-04-16T12:20:15.779Z,62.63
2023-04-16T12:22:49.637Z,62.39
2023-04-16T12:25:24.822Z,62.84
2023-04-16T12:27:58.087Z,63.42
2023-04-16T12:30:31.036Z,63.00
2023-04-16T12:33:19.528Z,62.36
2023-04-16T12:35:51.764Z,62.08
2023-04-16T12:38:24.626Z,62.33
2023-04-16T12:40:57.785Z,62.59
2023-04-16T12:43:29.699Z,62.60
2023-04-16T12:46:04.136Z,62.56
2023-04-16T12:48:36.281Z,63.58
2023-04-16T12:51:08.181Z,63.61
2023-04-16T12:53:40.137Z,63.24
2023-04-16T12:56:11.994Z,63.01
2023-04-16T12:58:43.784Z,63.17
2023-04-16T13:01:15.537Z,63.44
2023-04-16T13:03:48.796Z,64.00
2023-04-16T13:06:21.224Z,64.17
2023-04-16T13:08:57.048Z,64.09
2023-04-16T13:11:29.143Z,63.67
2023-04-16T13:14:00.980Z,63.63
2023-04-16T13:16:33.033Z,63.62
2023-04-16T13:19:05.435Z,63.63
2023-04-16T13:21:37.342Z,63.99
2023-04-16T13:24:09.069Z,64.33
2023-04-16T13:26:43.355Z,64.75
2023-04-16T13:29:15.455Z,64.93
2023-04-16T13:31:47.893Z,64.73
2023-04-16T13:34:20.230Z,64.58
2023-04-16T13:36:52.948Z,64.52
2023-04-16T13:39:25.393Z,64.21
2023-04-16T13:41:57.489Z,64.03
2023-04-16T13:44:29.619Z,64.28
2023-04-16T13:47:01.554Z,64.77
2023-04-16T13:49:35.936Z,64.22
2023-04-16T13:52:08.047Z,64.88
2023-04-16T13:54:40.565Z,65.25
2023-04-16T13:57:24.372Z,64.33
2023-04-16T13:59:56.406Z,64.29
2023-04-16T14:02:28.315Z,63.82
2023-04-16T14:05:00.295Z,63.97
2023-04-16T14:07:32.616Z,63.43
2023-04-16T14:10:04.762Z,64.21
2023-04-16T14:12:37.622Z,64.51
2023-04-16T14:15:10.336Z,63.29
2023-04-16T14:17:44.116Z,63.20
2023-04-16T14:20:15.935Z,63.26
2023-04-16T14:22:47.856Z,61.87
2023-04-16T14:25:19.580Z,62.14
2023-04-16T14:27:51.499Z,62.04
2023-04-16T14:30:23.302Z,62.53
2023-04-16T14:32:55.101Z,62.17
2023-04-16T14:35:27.251Z,62.19
2023-04-16T14:37:59.186Z,61.63
2023-04-16T14:40:31.350Z,61.88
2023-04-16T14:43:03.233Z,61.72
2023-04-16T14:45:35.363Z,61.56
2023-04-16T14:48:07.749Z,62.32
2023-04-16T14:50:43.578Z,61.80
2023-04-16T14:53:16.079Z,62.28
2023-04-16T14:55:48.252Z,61.66
2023-04-16T14:58:20.514Z,62.19
2023-04-16T15:00:52.598Z,61.88
2023-04-16T15:03:25.630Z,62.21
2023-04-16T15:05:58.442Z,62.38
2023-04-16T15:08:30.265Z,62.83
2023-04-16T15:11:02.268Z,63.41
2023-04-16T15:13:34.431Z,63.69
2023-04-16T15:16:06.421Z,64.33
2023-04-16T15:18:38.351Z,65.16
2023-04-16T15:21:12.407Z,65.13
2023-04-16T15:23:44.558Z,64.49
2023-04-16T15:26:16.351Z,64.82
2023-04-16T15:28:48.090Z,65.17
2023-04-16T15:31:21.029Z,65.81
2023-04-16T15:33:54.443Z,66.31
2023-04-16T15:36:26.797Z,66.85
2023-04-16T15:38:58.974Z,66.93
2023-04-16T15:41:31.885Z,66.76
2023-04-16T15:44:03.646Z,67.08
2023-04-16T15:46:35.514Z,67.10
2023-04-16T15:49:07.293Z,67.33
2023-04-16T15:51:39.752Z,68.00
2023-04-16T15:54:11.439Z,67.71
2023-04-16T15:56:43.448Z,68.35
2023-04-16T15:59:15.369Z,67.87
2023-04-16T16:01:47.519Z,67.78
2023-04-16T16:04:21.803Z,67.71
2023-04-16T16:06:54.561Z,67.96
2023-04-16T16:09:26.773Z,68.06
2023-04-16T16:12:02.094Z,68.32
2023-04-16T16:14:34.174Z,68.54
2023-04-16T16:17:06.091Z,68.29
2023-04-16T16:19:38.024Z,68.22
2023-04-16T16:22:10.374Z,68.23
2023-04-16T16:24:42.416Z,68.76
2023-04-16T16:27:14.423Z,68.56
2023-04-16T16:29:46.808Z,69.29
2023-04-16T16:32:19.009Z,68.98
2023-04-16T16:34:51.157Z,68.90
2023-04-16T16:37:22.943Z,68.52
2023-04-16T16:39:54.820Z,68.76
2023-04-16T16:42:27.310Z,69.32
2023-04-16T16:44:59.259Z,69.26
2023-04-16T16:47:32.827Z,69.57
2023-04-16T16:50:05.981Z,69.73
2023-04-16T16:52:38.676Z,69.95
2023-04-16T16:55:11.211Z,69.39
2023-04-16T16:57:43.386Z,69.31
2023-04-16T17:00:20.306Z,69.02
2023-04-16T17:02:52.864Z,68.99
2023-04-16T17:05:25.429Z,68.61
2023-04-16T17:07:57.275Z,69.02
2023-04-16T17:10:29.197Z,69.09
2023-04-16T17:13:01.542Z,69.73
2023-04-16T17:15:33.520Z,69.13
2023-04-16T17:18:05.449Z,69.15
2023-04-16T17:20:38.732Z,69.38
2023-04-16T17:23:11.063Z,69.59
2023-04-16T17:25:43.366Z,69.44
2023-04-16T17:28:15.427Z,69.41
2023-04-16T17:30:51.993Z,69.50
2023-04-16T17:33:23.882Z,69.43
2023-04-16T17:35:56.040Z,69.51
2023-04-16T17:38:28.113Z,69.48
2023-04-16T17:41:00.312Z,69.88
2023-04-16T17:43:32.052Z,70.09
2023-04-16T17:46:04.178Z,70.18
2023-04-16T17:48:36.513Z,69.99
2023-04-16T17:51:12.166Z,69.85
2023-04-16T17:53:44.670Z,69.78
2023-04-16T17:56:16.597Z,70.30
2023-04-16T17:58:48.403Z,70.24
2023-04-16T18:01:20.482Z,69.98
2023-04-16T18:03:52.469Z,70.50
2023-04-16T18:06:24.613Z,70.66
2023-04-16T18:08:56.776Z,70.64
2023-04-16T18:11:30.634Z,71.11
2023-04-16T18:14:02.980Z,70.91
2023-04-16T18:16:35.360Z,71.26
2023-04-16T18:19:07.195Z,71.53
2023-04-16T18:21:39.666Z,71.50
2023-04-16T18:24:11.791Z,71.39
2023-04-16T18:26:46.861Z,71.75
2023-04-16T18:29:19.364Z,72.00
2023-04-16T18:31:51.498Z,71.87
2023-04-16T18:34:25.559Z,72.14
2023-04-16T18:36:57.496Z,72.55
2023-04-16T18:39:33.521Z,72.67
2023-04-16T18:42:05.285Z,73.01
2023-04-16T18:44:36.934Z,73.16
2023-04-16T18:47:10.560Z,72.95
2023-04-16T18:49:42.285Z,73.31
2023-04-16T18:52:14.021Z,73.40
2023-04-16T18:54:45.982Z,73.23
2023-04-16T18:57:17.667Z,73.53
2023-04-16T18:59:49.442Z,73.81
2023-04-16T19:02:21.163Z,74.38
2023-04-16T19:04:53.003Z,74.41
2023-04-16T19:07:25.731Z,74.79
2023-04-16T19:09:58.683Z,75.08
2023-04-16T19:12:31.718Z,74.78
2023-04-16T19:15:04.794Z,74.92
2023-04-16T19:17:36.708Z,75.35
2023-04-16T19:20:11.249Z,74.98
2023-04-16T19:22:43.917Z,75.22
2023-04-16T19:25:15.746Z,75.52
2023-04-16T19:27:47.837Z,75.39
2023-04-16T19:30:20.690Z,75.74
2023-04-16T19:32:55.134Z,75.99
2023-04-16T19:35:28.030Z,76.36
2023-04-16T19:37:59.767Z,76.42
2023-04-16T19:40:31.575Z,76.44
2023-04-16T19:43:03.667Z,76.57
2023-04-16T19:45:35.588Z,76.77
2023-04-16T19:48:07.390Z,76.81
2023-04-16T19:50:42.987Z,76.65
2023-04-16T19:53:17.194Z,76.89
2023-04-16T19:55:50.416Z,77.07
2023-04-16T19:58:22.073Z,76.91
2023-04-16T20:00:53.807Z,77.20
2023-04-16T20:03:25.698Z,77.58
2023-04-16T20:05:57.417Z,77.43
2023-04-16T20:08:29.582Z,77.63
2023-04-16T20:11:01.932Z,77.91
2023-04-16T20:13:33.663Z,77.71
2023-04-16T20:16:05.784Z,77.84
2023-04-16T20:18:41.478Z,77.56
2023-04-16T20:21:13.467Z,77.91
2023-04-16T20:23:45.170Z,78.28
2023-04-16T20:26:18.322Z,78.30
2023-04-16T20:28:50.003Z,78.41
2023-04-16T20:31:21.718Z,78.46
2023-04-16T20:33:54.256Z,78.72
2023-04-16T20:36:26.143Z,78.49
2023-04-16T20:38:59.412Z,78.76
2023-04-16T20:41:32.651Z,78.74
2023-04-16T20:44:05.323Z,78.61
2023-04-16T20:46:40.201Z,79.07
2023-04-16T20:49:13.851Z,78.88
2023-04-16T20:51:45.579Z,79.33
2023-04-16T20:54:18.123Z,79.55
2023-04-16T20:56:50.358Z,79.33
2023-04-16T20:59:22.089Z,79.60
2023-04-16T21:01:55.014Z,79.41
2023-04-16T21:04:26.790Z,79.61
2023-04-16T21:06:58.579Z,79.67
2023-04-16T21:09:31.055Z,79.82
2023-04-16T21:12:02.876Z,79.96
2023-04-16T21:14:34.772Z,79.81
2023-04-16T21:17:06.468Z,80.04
2023-04-16T21:19:38.101Z,79.89
2023-04-16T21:22:09.982Z,80.07
2023-04-16T21:24:41.795Z,80.12
2023-04-16T21:27:15.051Z,79.83
2023-04-16T21:29:46.875Z,80.29
2023-04-16T21:32:20.645Z,80.04
2023-04-16T21:34:52.381Z,80.27
2023-04-16T21:37:24.104Z,80.51
2023-04-16T21:39:55.783Z,80.43
2023-04-16T21:42:27.603Z,80.28
2023-04-16T21:44:59.636Z,80.66
2023-04-16T21:47:31.493Z,80.75
2023-04-16T21:50:03.858Z,80.69
2023-04-16T21:52:40.752Z,80.64
2023-04-16T21:55:14.438Z,80.51
2023-04-16T21:57:46.952Z,80.09
2023-04-16T22:00:19.031Z,80.11
2023-04-16T22:02:56.169Z,80.58
2023-04-16T22:05:28.172Z,80.24
2023-04-16T22:08:02.570Z,79.88
2023-04-16T22:10:40.048Z,79.79
2023-04-16T22:13:13.791Z,79.77
2023-04-16T22:15:45.576Z,79.87
2023-04-16T22:18:18.157Z,79.73
2023-04-16T22:20:51.014Z,79.67
2023-04-16T22:23:24.959Z,79.82
2023-04-16T22:25:56.730Z,79.78
2023-04-16T22:28:29.217Z,79.86
2023-04-16T22:31:02.164Z,79.89
2023-04-16T22:33:34.620Z,79.56
2023-04-16T22:36:07.577Z,79.48
2023-04-16T22:38:39.745Z,79.39
2023-04-16T22:41:11.456Z,79.42
2023-04-16T22:43:43.237Z,79.26
2023-04-16T22:46:14.924Z,79.12
2023-04-16T22:48:47.156Z,79.06
2023-04-16T22:51:18.778Z,79.48
2023-04-16T22:53:51.920Z,79.43
2023-04-16T22:56:28.597Z,79.27
2023-04-16T22:59:01.157Z,79.07
2023-04-16T23:01:34.674Z,79.25
2023-04-16T23:04:06.369Z,79.13
2023-04-16T23:06:40.578Z,79.43
2023-04-16T23:09:12.500Z,79.41
2023-04-16T23:11:44.469Z,79.26
2023-04-16T23:14:16.977Z,79.08
2023-04-16T23:16:48.735Z,79.14
2023-04-16T23:19:20.515Z,78.96
2023-04-16T23:21:52.171Z,79.09
2023-04-16T23:24:23.931Z,79.19
2023-04-16T23:26:56.236Z,79.11
2023-04-16T23:29:27.971Z,79.23
2023-04-16T23:32:00.497Z,79.22
2023-04-16T23:34:32.220Z,78.96
2023-04-16T23:37:03.871Z,79.23
2023-04-16T23:39:35.902Z,78.88
2023-04-16T23:42:08.633Z,79.29
2023-04-16T23:44:40.543Z,79.47
2023-04-16T23:47:13.272Z,79.81
2023-04-16T23:49:45.077Z,79.58
2023-04-16T23:52:16.717Z,80.00
2023-04-16T23:54:48.600Z,79.89
2023-04-16T23:57:20.355Z,79.98
2023-04-16T23:59:53.582Z,80.14
